createdAt,value
2022-09-26T00:01:21.062Z,6.65
2022-09-26T00:04:01.747Z,7.88
2022-09-26T00:06:30.025Z,6.20
2022-09-26T00:08:58.332Z,8.60
2022-09-26T00:11:28.973Z,6.55
2022-09-26T00:13:58.719Z,8.05
2022-09-26T00:16:27.127Z,8.25
2022-09-26T00:18:56.328Z,8.02
2022-09-26T00:21:24.697Z,9.05
2022-09-26T00:23:52.285Z,7.15
2022-09-26T00:26:21.452Z,8.02
2022-09-26T00:28:48.829Z,9.90
2022-09-26T00:31:22.624Z,9.23
2022-09-26T00:36:18.147Z,11.02
2022-09-26T00:38:46.112Z,13.45
2022-09-26T00:41:14.472Z,16.40
2022-09-26T00:43:53.292Z,13.07
2022-09-26T00:46:40.749Z,11.48
2022-09-26T00:49:20.951Z,12.32
2022-09-26T00:52:11.408Z,11.15
2022-09-26T00:54:41.493Z,7.97
2022-09-26T00:57:17.560Z,10.40
2022-09-26T00:59:49.669Z,11.88
2022-09-26T01:02:17.452Z,8.88
2022-09-26T01:04:47.107Z,9.65
2022-09-26T01:07:23.701Z,10.43
2022-09-26T01:09:52.712Z,9.35
2022-09-26T01:12:21.394Z,10.52
2022-09-26T01:14:52.148Z,25.95
2022-09-26T01:17:20.286Z,23.55
2022-09-26T01:19:59.618Z,19.85
2022-09-26T01:22:44.907Z,15.63
2022-09-26T01:25:37.305Z,14.35
2022-09-26T01:28:35.868Z,13.15
2022-09-26T01:31:03.335Z,10.60
2022-09-26T01:33:50.117Z,10.40
2022-09-26T01:36:26.738Z,10.23
2022-09-26T01:39:12.544Z,9.18
2022-09-26T01:42:00.234Z,8.95
2022-09-26T01:45:00.340Z,9.65
2022-09-26T01:47:55.577Z,8.73
2022-09-26T01:50:45.958Z,10.00
2022-09-26T01:53:22.340Z,8.70
2022-09-26T01:55:59.803Z,11.60
2022-09-26T01:58:47.749Z,12.30
2022-09-26T02:01:19.164Z,12.55
2022-09-26T02:03:56.667Z,14.15
2022-09-26T02:06:38.209Z,11.57
2022-09-26T02:09:12.376Z,10.60
2022-09-26T02:11:44.906Z,9.52
2022-09-26T02:14:25.860Z,10.23
2022-09-26T02:16:57.707Z,11.10
2022-09-26T02:19:44.665Z,14.52
2022-09-26T02:22:12.162Z,12.70
2022-09-26T02:24:39.713Z,17.35
2022-09-26T02:27:07.760Z,22.98
2022-09-26T02:29:35.361Z,18.65
2022-09-26T02:32:28.341Z,14.75
2022-09-26T02:34:56.941Z,13.50
2022-09-26T02:37:25.782Z,13.52
2022-09-26T02:39:53.596Z,11.35
2022-09-26T02:42:36.820Z,10.20
2022-09-26T02:45:28.770Z,9.05
2022-09-26T02:48:14.480Z,10.18
2022-09-26T02:51:11.197Z,9.18
2022-09-26T02:53:59.548Z,9.82
2022-09-26T02:56:55.747Z,50.17
2022-09-26T02:59:37.384Z,22.35
2022-09-26T03:02:43.996Z,10.63
2022-09-26T03:05:30.976Z,14.20
2022-09-26T03:08:16.591Z,16.98
2022-09-26T03:10:46.860Z,18.45
2022-09-26T03:13:17.477Z,14.23
2022-09-26T03:15:51.485Z,15.30
2022-09-26T03:20:55.346Z,36.50
2022-09-26T03:23:27.179Z,54.63
2022-09-26T03:26:10.428Z,52.42
2022-09-26T03:28:38.196Z,38.13
2022-09-26T03:31:06.011Z,28.25
2022-09-26T03:33:33.439Z,21.52
2022-09-26T03:36:05.003Z,22.48
2022-09-26T03:38:32.385Z,16.70
2022-09-26T03:40:59.908Z,14.65
2022-09-26T03:43:28.097Z,21.30
2022-09-26T03:45:55.470Z,17.55
2022-09-26T03:48:22.770Z,16.65
2022-09-26T03:50:50.067Z,18.60
2022-09-26T03:53:17.351Z,33.85
2022-09-26T03:55:45.166Z,33.78
2022-09-26T03:58:12.491Z,39.08
2022-09-26T04:00:40.617Z,35.35
2022-09-26T04:03:07.951Z,25.73
2022-09-26T04:05:36.340Z,75.53
2022-09-26T04:08:04.308Z,59.25
2022-09-26T04:10:31.612Z,48.55
2022-09-26T04:12:58.973Z,24.35
2022-09-26T04:15:26.248Z,24.98
2022-09-26T04:17:54.915Z,37.40
2022-09-26T04:20:23.092Z,62.03
2022-09-26T04:22:50.411Z,103.13
2022-09-26T04:25:17.678Z,77.80
2022-09-26T04:27:45.024Z,65.88
2022-09-26T04:30:13.137Z,81.65
2022-09-26T04:32:40.503Z,194.40
2022-09-26T04:35:08.083Z,196.68
2022-09-26T04:37:37.449Z,163.75
2022-09-26T04:40:05.045Z,58.17
2022-09-26T04:42:37.255Z,34.05
2022-09-26T04:45:05.338Z,73.18
2022-09-26T04:47:32.767Z,71.10
2022-09-26T04:50:00.155Z,98.82
2022-09-26T04:52:27.979Z,145.60
2022-09-26T04:54:55.334Z,70.82
2022-09-26T04:57:22.656Z,133.60
2022-09-26T04:59:50.014Z,81.25
2022-09-26T05:02:17.488Z,32.55
2022-09-26T05:04:44.914Z,22.10
2022-09-26T05:07:12.143Z,21.27
2022-09-26T05:09:39.456Z,9.00
2022-09-26T05:12:06.792Z,11.00
2022-09-26T05:14:36.095Z,26.80
2022-09-26T05:17:04.111Z,10.13
2022-09-26T05:19:31.972Z,10.35
2022-09-26T05:21:59.232Z,16.65
2022-09-26T05:24:44.849Z,12.30
2022-09-26T05:27:12.196Z,10.15
2022-09-26T05:29:39.702Z,18.80
2022-09-26T05:32:07.157Z,17.63
2022-09-26T05:34:34.966Z,12.48
2022-09-26T05:37:02.395Z,17.35
2022-09-26T05:39:48.174Z,8.30
2022-09-26T05:42:15.711Z,10.07
2022-09-26T05:44:42.977Z,21.27
2022-09-26T05:47:10.655Z,13.40
2022-09-26T05:49:38.597Z,15.32
2022-09-26T05:52:06.011Z,13.18
2022-09-26T05:54:33.382Z,24.70
2022-09-26T05:57:01.112Z,8.88
2022-09-26T05:59:28.407Z,26.92
2022-09-26T06:01:55.815Z,10.68
2022-09-26T06:04:23.142Z,8.23
2022-09-26T06:06:51.683Z,7.90
2022-09-26T06:09:19.017Z,13.55
2022-09-26T06:11:46.517Z,14.60
2022-09-26T06:14:13.883Z,39.35
2022-09-26T06:16:41.317Z,16.67
2022-09-26T06:19:08.729Z,9.88
2022-09-26T06:21:40.107Z,15.65
2022-09-26T06:24:07.477Z,14.43
2022-09-26T06:26:34.774Z,15.75
2022-09-26T06:29:02.714Z,10.32
2022-09-26T06:31:31.071Z,20.50
2022-09-26T06:33:58.771Z,15.02
2022-09-26T06:36:26.266Z,9.05
2022-09-26T06:38:56.228Z,25.75
2022-09-26T06:41:26.847Z,37.28
2022-09-26T06:43:54.255Z,39.88
2022-09-26T06:46:22.117Z,29.33
2022-09-26T06:48:49.653Z,37.75
2022-09-26T06:51:17.000Z,19.00
2022-09-26T06:53:46.067Z,21.48
2022-09-26T06:56:13.938Z,10.13
2022-09-26T06:58:42.087Z,17.20
2022-09-26T07:01:09.778Z,9.93
2022-09-26T07:03:40.500Z,7.28
2022-09-26T07:06:10.339Z,12.57
2022-09-26T07:09:00.957Z,11.73
2022-09-26T07:14:17.470Z,8.05
2022-09-26T07:16:46.282Z,8.75
2022-09-26T07:19:13.977Z,13.73
2022-09-26T07:21:41.520Z,14.65
2022-09-26T07:24:08.944Z,8.40
2022-09-26T07:26:36.431Z,25.23
2022-09-26T07:29:03.774Z,35.13
2022-09-26T07:31:31.426Z,15.05
2022-09-26T07:33:58.709Z,26.90
2022-09-26T07:36:25.987Z,60.40
2022-09-26T07:38:53.777Z,18.50
2022-09-26T07:41:21.288Z,24.10
2022-09-26T07:46:54.285Z,17.88
2022-09-26T07:49:39.794Z,7.60
2022-09-26T07:52:07.264Z,17.77
2022-09-26T07:54:35.581Z,41.22
2022-09-26T07:57:05.276Z,6.38
2022-09-26T07:59:36.114Z,18.02
2022-09-26T08:02:04.757Z,17.95
2022-09-26T08:04:32.204Z,11.88
2022-09-26T08:06:59.819Z,11.57
2022-09-26T08:09:27.115Z,7.40
2022-09-26T08:11:54.388Z,8.90
2022-09-26T08:14:21.697Z,22.00
2022-09-26T08:16:49.553Z,6.35
2022-09-26T08:19:17.786Z,18.77
2022-09-26T08:21:45.090Z,42.20
2022-09-26T08:24:12.398Z,32.22
2022-09-26T08:26:44.185Z,13.88
2022-09-26T08:29:12.705Z,19.05
2022-09-26T08:31:40.405Z,17.48
2022-09-26T08:34:08.511Z,24.38
2022-09-26T08:36:37.282Z,20.75
2022-09-26T08:39:05.249Z,9.80
2022-09-26T08:41:53.737Z,13.32
2022-09-26T08:44:38.531Z,11.77
2022-09-26T08:47:30.532Z,13.90
2022-09-26T08:50:04.608Z,6.80
2022-09-26T08:52:53.792Z,7.70
2022-09-26T08:55:31.749Z,2.85
2022-09-26T08:58:23.224Z,9.45
2022-09-26T09:01:02.988Z,7.15
2022-09-26T09:03:48.387Z,9.73
2022-09-26T09:06:15.963Z,8.98
2022-09-26T09:08:56.550Z,4.90
2022-09-26T09:11:51.041Z,5.95
2022-09-26T09:14:24.388Z,3.10
2022-09-26T09:17:14.285Z,10.15
2022-09-26T09:19:48.964Z,7.32
2022-09-26T09:22:22.415Z,15.73
2022-09-26T09:25:03.818Z,9.18
2022-09-26T09:27:52.976Z,8.23
2022-09-26T09:30:50.339Z,14.50
2022-09-26T09:33:25.504Z,10.20
2022-09-26T09:36:04.564Z,12.07
2022-09-26T09:38:34.862Z,4.57
2022-09-26T09:41:11.083Z,11.35
2022-09-26T09:43:43.768Z,3.78
2022-09-26T09:46:29.508Z,4.38
2022-09-26T09:49:21.397Z,4.45
2022-09-26T09:51:54.202Z,9.85
2022-09-26T09:54:45.852Z,10.07
2022-09-26T09:57:24.955Z,13.48
2022-09-26T10:00:22.525Z,8.27
2022-09-26T10:03:01.805Z,8.98
2022-09-26T10:05:47.367Z,3.88
2022-09-26T10:08:26.057Z,8.05
2022-09-26T10:11:06.122Z,7.75
2022-09-26T10:13:35.171Z,6.32
2022-09-26T10:16:06.266Z,4.10
2022-09-26T10:18:52.512Z,9.25
2022-09-26T10:21:21.024Z,9.57
2022-09-26T10:23:50.672Z,10.10
2022-09-26T10:26:34.881Z,14.18
2022-09-26T10:29:08.436Z,6.22
2022-09-26T10:31:42.635Z,5.40
2022-09-26T10:34:28.789Z,5.00
2022-09-26T10:36:57.076Z,17.75
2022-09-26T10:39:47.850Z,9.07
2022-09-26T10:42:23.252Z,2.85
2022-09-26T10:44:51.016Z,13.73
2022-09-26T10:47:24.097Z,9.18
2022-09-26T10:50:07.736Z,14.90
2022-09-26T10:52:57.890Z,6.70
2022-09-26T10:55:57.927Z,3.40
2022-09-26T10:58:30.047Z,6.35
2022-09-26T11:01:01.084Z,19.17
2022-09-26T11:03:41.479Z,6.25
2022-09-26T11:06:29.658Z,7.28
2022-09-26T11:09:03.464Z,4.68
2022-09-26T11:11:38.183Z,7.18
2022-09-26T11:14:10.370Z,6.00
2022-09-26T11:16:54.307Z,6.43
2022-09-26T11:19:42.852Z,10.63
2022-09-26T11:22:22.494Z,13.20
2022-09-26T11:25:03.797Z,3.15
2022-09-26T11:27:52.670Z,10.05
2022-09-26T11:30:24.361Z,6.25
2022-09-26T11:32:56.853Z,7.30
2022-09-26T11:35:33.529Z,11.17
2022-09-26T11:38:06.673Z,9.75
2022-09-26T11:41:03.260Z,6.60
2022-09-26T11:43:50.859Z,4.53
2022-09-26T11:46:21.826Z,3.97
2022-09-26T11:49:17.504Z,5.80
2022-09-26T11:52:07.467Z,6.07
2022-09-26T11:55:07.315Z,10.70
2022-09-26T11:57:53.972Z,7.82
2022-09-26T12:00:31.351Z,3.65
2022-09-26T12:03:30.641Z,1.60
2022-09-26T12:06:21.320Z,2.42
2022-09-26T12:09:05.258Z,2.38
2022-09-26T12:12:04.169Z,1.33
2022-09-26T12:14:46.781Z,4.32
2022-09-26T12:17:23.297Z,2.00
2022-09-26T12:20:14.553Z,2.05
2022-09-26T12:23:07.809Z,2.10
2022-09-26T12:25:36.367Z,2.03
2022-09-26T12:28:20.550Z,2.83
2022-09-26T12:31:12.497Z,2.30
2022-09-26T12:34:08.206Z,1.48
2022-09-26T12:36:54.548Z,1.20
2022-09-26T12:39:46.172Z,2.25
2022-09-26T12:42:26.834Z,3.78
2022-09-26T12:45:00.161Z,2.33
2022-09-26T12:47:57.850Z,1.73
2022-09-26T12:50:34.209Z,2.67
2022-09-26T12:53:12.866Z,2.50
2022-09-26T12:55:44.065Z,4.38
2022-09-26T12:58:26.783Z,1.88
2022-09-26T13:01:20.637Z,1.80
2022-09-26T13:04:07.900Z,2.33
2022-09-26T13:07:17.363Z,1.75
2022-09-26T13:10:19.783Z,2.35
2022-09-26T13:12:59.420Z,3.13
2022-09-26T13:15:32.641Z,2.88
2022-09-26T13:18:21.944Z,2.13
2022-09-26T13:21:00.403Z,1.95
2022-09-26T13:23:44.956Z,2.15
2022-09-26T13:26:20.102Z,2.70
2022-09-26T13:29:16.324Z,2.47
2022-09-26T13:32:04.229Z,4.05
2022-09-26T13:35:08.830Z,2.05
2022-09-26T13:37:38.851Z,1.65
2022-09-26T13:40:34.198Z,3.92
2022-09-26T13:43:12.045Z,3.95
2022-09-26T13:45:46.542Z,5.32
2022-09-26T13:48:50.253Z,6.13
2022-09-26T13:51:36.969Z,3.50
2022-09-26T13:54:27.517Z,3.13
2022-09-26T13:56:56.418Z,2.75
2022-09-26T13:59:34.640Z,3.03
2022-09-26T14:02:25.418Z,4.38
2022-09-26T14:05:01.863Z,1.83
2022-09-26T14:07:59.456Z,1.55
2022-09-26T14:10:34.004Z,5.10
2022-09-26T14:13:08.635Z,2.55
2022-09-26T14:15:50.970Z,1.35
2022-09-26T14:18:43.175Z,1.20
2022-09-26T14:21:10.928Z,3.80
2022-09-26T14:23:43.868Z,2.00
2022-09-26T14:26:21.185Z,2.25
2022-09-26T14:28:54.062Z,2.55
2022-09-26T14:31:22.613Z,2.60
2022-09-26T14:34:04.300Z,5.13
2022-09-26T14:36:35.056Z,2.78
2022-09-26T14:39:06.218Z,4.00
2022-09-26T14:41:36.070Z,2.60
2022-09-26T14:44:16.642Z,3.92
2022-09-26T14:46:44.610Z,3.53
2022-09-26T14:49:26.459Z,1.75
2022-09-26T14:52:00.737Z,2.20
2022-09-26T14:54:39.883Z,3.92
2022-09-26T14:57:21.079Z,25.35
2022-09-26T14:59:50.062Z,6.78
2022-09-26T15:02:50.644Z,10.20
2022-09-26T15:05:24.362Z,7.20
2022-09-26T15:10:28.431Z,10.45
2022-09-26T15:13:07.942Z,8.15
2022-09-26T15:15:38.239Z,4.47
2022-09-26T15:18:28.783Z,7.97
2022-09-26T15:21:04.236Z,7.30
2022-09-26T15:23:34.458Z,1.98
2022-09-26T15:26:02.950Z,4.25
2022-09-26T15:28:34.975Z,5.07
2022-09-26T15:31:24.393Z,4.05
2022-09-26T15:34:17.923Z,6.38
2022-09-26T15:36:49.068Z,4.28
2022-09-26T15:39:31.555Z,9.13
2022-09-26T15:42:18.958Z,40.28
2022-09-26T15:45:00.083Z,73.10
2022-09-26T15:47:41.524Z,96.45
2022-09-26T15:50:26.190Z,133.45
2022-09-26T15:53:17.758Z,27.83
2022-09-26T15:56:03.038Z,27.30
2022-09-26T15:58:57.111Z,38.90
2022-09-26T16:01:28.699Z,114.38
2022-09-26T16:04:02.595Z,137.07
2022-09-26T16:09:12.757Z,18.83
2022-09-26T16:11:54.710Z,14.85
2022-09-26T16:14:32.578Z,11.18
2022-09-26T16:17:28.169Z,13.05
2022-09-26T16:19:56.824Z,12.93
2022-09-26T16:22:41.121Z,9.43
2022-09-26T16:25:32.588Z,7.93
2022-09-26T16:28:00.024Z,9.98
2022-09-26T16:30:30.439Z,6.18
2022-09-26T16:33:33.817Z,7.90
2022-09-26T16:36:24.000Z,11.98
2022-09-26T16:38:58.720Z,7.57
2022-09-26T16:42:00.191Z,8.70
2022-09-26T16:44:36.372Z,7.80
2022-09-26T16:47:06.962Z,9.95
2022-09-26T16:49:48.719Z,10.27
2022-09-26T16:52:36.706Z,7.85
2022-09-26T16:55:07.371Z,6.30
2022-09-26T16:57:40.269Z,5.63
2022-09-26T17:00:37.746Z,6.80
2022-09-26T17:03:22.826Z,6.20
2022-09-26T17:05:51.737Z,5.70
2022-09-26T17:08:19.820Z,5.05
2022-09-26T17:10:47.552Z,6.38
2022-09-26T17:13:26.717Z,5.85
2022-09-26T17:15:56.524Z,4.38
2022-09-26T17:18:29.484Z,4.22
2022-09-26T17:20:59.281Z,5.97
2022-09-26T17:23:40.003Z,4.15
2022-09-26T17:26:12.540Z,6.05
2022-09-26T17:28:44.944Z,5.13
2022-09-26T17:31:20.017Z,5.20
2022-09-26T17:33:51.726Z,4.75
2022-09-26T17:36:23.453Z,5.60
2022-09-26T17:38:51.069Z,7.40
2022-09-26T17:41:18.502Z,8.43
2022-09-26T17:43:45.945Z,4.97
2022-09-26T17:46:16.138Z,5.38
2022-09-26T17:48:44.865Z,7.25
2022-09-26T17:51:14.773Z,4.50
2022-09-26T17:53:51.109Z,5.55
2022-09-26T17:56:20.059Z,4.30
2022-09-26T17:58:48.639Z,7.95
2022-09-26T18:01:34.458Z,6.22
2022-09-26T18:04:06.495Z,4.45
2022-09-26T18:06:34.236Z,4.00
2022-09-26T18:09:07.779Z,6.40
2022-09-26T18:11:37.592Z,3.85
2022-09-26T18:14:07.160Z,3.88
2022-09-26T18:16:34.432Z,5.15
2022-09-26T18:19:06.889Z,3.90
2022-09-26T18:21:35.156Z,5.07
2022-09-26T18:24:07.109Z,3.88
2022-09-26T18:26:44.769Z,4.07
2022-09-26T18:29:14.913Z,4.70
2022-09-26T18:31:45.887Z,5.13
2022-09-26T18:34:20.228Z,9.70
2022-09-26T18:36:50.386Z,8.80
2022-09-26T18:39:17.829Z,12.18
2022-09-26T18:41:46.247Z,6.15
2022-09-26T18:44:18.383Z,6.68
2022-09-26T18:46:47.382Z,3.47
2022-09-26T18:49:15.309Z,3.88
2022-09-26T18:51:42.755Z,4.47
2022-09-26T18:54:13.823Z,4.72
2022-09-26T18:56:59.935Z,5.60
2022-09-26T18:59:31.230Z,5.30
2022-09-26T19:02:01.508Z,4.78
2022-09-26T19:04:30.905Z,3.67
2022-09-26T19:07:02.341Z,3.42
2022-09-26T19:09:33.970Z,4.82
2022-09-26T19:12:02.349Z,4.78
2022-09-26T19:14:31.485Z,3.70
2022-09-26T19:16:59.349Z,5.50
2022-09-26T19:19:28.925Z,5.47
2022-09-26T19:21:58.424Z,6.38
2022-09-26T19:24:28.743Z,3.05
2022-09-26T19:27:04.728Z,4.53
2022-09-26T19:29:54.159Z,3.50
2022-09-26T19:32:32.578Z,3.53
2022-09-26T19:35:15.890Z,5.20
2022-09-26T19:37:43.166Z,6.00
2022-09-26T19:40:14.245Z,6.35
2022-09-26T19:42:42.636Z,4.60
2022-09-26T19:45:12.639Z,4.75
2022-09-26T19:47:44.985Z,4.50
2022-09-26T19:50:24.240Z,5.60
2022-09-26T19:52:53.041Z,3.92
2022-09-26T19:55:26.788Z,5.05
2022-09-26T19:58:10.887Z,4.72
2022-09-26T20:00:41.739Z,6.45
2022-09-26T20:03:20.625Z,3.30
2022-09-26T20:05:49.708Z,5.45
2022-09-26T20:08:19.725Z,5.55
2022-09-26T20:10:48.309Z,5.43
2022-09-26T20:13:16.489Z,5.95
2022-09-26T20:15:44.558Z,4.97
2022-09-26T20:18:22.665Z,3.63
2022-09-26T20:20:55.897Z,3.55
2022-09-26T20:23:27.016Z,4.68
2022-09-26T20:25:55.649Z,4.85
2022-09-26T20:28:23.330Z,3.70
2022-09-26T20:30:55.513Z,5.38
2022-09-26T20:33:26.510Z,5.07
2022-09-26T20:36:06.934Z,8.43
2022-09-26T20:38:40.779Z,5.03
2022-09-26T20:43:48.672Z,4.30
2022-09-26T20:46:16.281Z,4.50
2022-09-26T20:48:47.321Z,4.18
2022-09-26T20:51:35.392Z,5.32
2022-09-26T20:54:03.876Z,4.95
2022-09-26T20:56:31.278Z,4.60
2022-09-26T20:58:58.761Z,4.40
2022-09-26T21:01:28.439Z,3.78
2022-09-26T21:03:56.392Z,6.30
2022-09-26T21:06:27.622Z,3.63
2022-09-26T21:08:54.912Z,4.95
2022-09-26T21:11:22.730Z,5.43
2022-09-26T21:13:50.286Z,4.97
2022-09-26T21:16:20.222Z,4.18
2022-09-26T21:18:51.554Z,3.33
2022-09-26T21:21:28.804Z,4.05
2022-09-26T21:23:58.415Z,4.95
2022-09-26T21:26:28.113Z,6.10
2022-09-26T21:28:56.724Z,13.38
2022-09-26T21:31:26.281Z,27.80
2022-09-26T21:33:54.475Z,31.75
2022-09-26T21:36:21.898Z,40.17
2022-09-26T21:38:52.614Z,33.83
2022-09-26T21:41:20.418Z,27.52
2022-09-26T21:43:52.054Z,22.73
2022-09-26T21:46:20.136Z,21.95
2022-09-26T21:48:48.458Z,14.98
2022-09-26T21:51:16.213Z,15.70
2022-09-26T21:53:54.513Z,34.92
2022-09-26T21:56:26.260Z,34.30
2022-09-26T21:58:53.903Z,48.20
2022-09-26T22:01:21.489Z,52.15
2022-09-26T22:03:48.953Z,40.33
2022-09-26T22:06:16.342Z,53.65
2022-09-26T22:08:43.677Z,44.35
2022-09-26T22:11:11.114Z,32.47
2022-09-26T22:13:39.132Z,41.72
2022-09-26T22:16:13.947Z,26.30
2022-09-26T22:18:41.687Z,26.55
2022-09-26T22:21:10.698Z,23.75
2022-09-26T22:23:38.629Z,23.33
2022-09-26T22:26:07.170Z,14.52
2022-09-26T22:28:34.518Z,12.55
2022-09-26T22:31:03.300Z,16.40
2022-09-26T22:33:31.171Z,11.48
2022-09-26T22:35:58.508Z,13.38
2022-09-26T22:38:25.908Z,13.30
2022-09-26T22:40:58.138Z,7.47
2022-09-26T22:43:25.841Z,8.65
2022-09-26T22:45:53.758Z,7.60
2022-09-26T22:48:21.846Z,10.40
2022-09-26T22:50:49.097Z,9.25
2022-09-26T22:53:16.372Z,10.50
2022-09-26T22:55:53.015Z,11.18
2022-09-26T22:58:20.428Z,11.38
2022-09-26T23:00:48.321Z,11.45
2022-09-26T23:03:15.690Z,12.93
2022-09-26T23:05:42.993Z,11.07
2022-09-26T23:08:10.226Z,11.63
2022-09-26T23:10:38.001Z,10.32
2022-09-26T23:13:05.399Z,10.23
2022-09-26T23:15:33.171Z,8.00
2022-09-26T23:18:00.375Z,7.93
2022-09-26T23:20:27.625Z,9.80
2022-09-26T23:22:55.092Z,11.25
2022-09-26T23:25:22.363Z,10.65
2022-09-26T23:27:50.687Z,10.02
2022-09-26T23:30:17.985Z,11.23
2022-09-26T23:32:46.163Z,10.20
2022-09-26T23:35:15.021Z,8.68
2022-09-26T23:37:42.636Z,7.07
2022-09-26T23:40:10.375Z,8.57
2022-09-26T23:42:37.614Z,6.97
2022-09-26T23:45:05.240Z,9.23
2022-09-26T23:47:32.640Z,8.50
2022-09-26T23:49:59.940Z,9.18
2022-09-26T23:52:27.179Z,9.18
2022-09-26T23:54:54.502Z,7.80
2022-09-26T23:57:23.499Z,10.35
2022-09-26T23:59:50.816Z,10.30
